sensor_id;sensor_type;location;lat;lon;timestamp;temperature;humidity
10129;DHT22;5104;50.720;7.044;2022-07-05T00:01:28;17.30;99.90
10129;DHT22;5104;50.720;7.044;2022-07-05T00:03:55;17.20;99.90
10129;DHT22;5104;50.720;7.044;2022-07-05T00:06:24;17.20;99.90
10129;DHT22;5104;50.720;7.044;2022-07-05T00:08:50;17.20;99.90
10129;DHT22;5104;50.720;7.044;2022-07-05T00:11:17;17.10;99.90
10129;DHT22;5104;50.720;7.044;2022-07-05T00:13:44;17.10;1.00
10129;DHT22;5104;50.720;7.044;2022-07-05T00:16:11;17.00;1.00
10129;DHT22;5104;50.720;7.044;2022-07-05T00:18:38;16.90;1.00
10129;DHT22;5104;50.720;7.044;2022-07-05T00:21:05;16.90;1.00
10129;DHT22;5104;50.720;7.044;2022-07-05T00:23:33;16.80;1.00
10129;DHT22;5104;50.720;7.044;2022-07-05T00:26:00;16.70;1.00
10129;DHT22;5104;50.720;7.044;2022-07-05T00:28:27;16.70;51.70
10129;DHT22;5104;50.720;7.044;2022-07-05T00:30:54;16.70;4.00
10129;DHT22;5104;50.720;7.044;2022-07-05T00:33:21;16.80;1.00
10129;DHT22;5104;50.720;7.044;2022-07-05T00:35:48;16.90;1.00
10129;DHT22;5104;50.720;7.044;2022-07-05T00:38:14;16.90;1.00
10129;DHT22;5104;50.720;7.044;2022-07-05T00:40:43;16.90;1.00
10129;DHT22;5104;50.720;7.044;2022-07-05T00:43:10;16.90;1.00
10129;DHT22;5104;50.720;7.044;2022-07-05T00:45:37;16.90;1.00
10129;DHT22;5104;50.720;7.044;2022-07-05T00:48:05;16.80;1.00
10129;DHT22;5104;50.720;7.044;2022-07-05T00:50:31;16.70;25.30
10129;DHT22;5104;50.720;7.044;2022-07-05T00:53:00;16.60;99.90
10129;DHT22;5104;50.720;7.044;2022-07-05T00:55:27;16.60;99.90
10129;DHT22;5104;50.720;7.044;2022-07-05T00:57:55;16.60;99.90
10129;DHT22;5104;50.720;7.044;2022-07-05T01:00:22;16.60;1.00
10129;DHT22;5104;50.720;7.044;2022-07-05T01:02:49;16.50;1.00
10129;DHT22;5104;50.720;7.044;2022-07-05T01:05:17;16.50;1.00
10129;DHT22;5104;50.720;7.044;2022-07-05T01:07:44;16.40;1.00
10129;DHT22;5104;50.720;7.044;2022-07-05T01:10:11;16.40;1.00
10129;DHT22;5104;50.720;7.044;2022-07-05T01:12:39;16.40;5.20
10129;DHT22;5104;50.720;7.044;2022-07-05T01:15:09;16.30;1.00
10129;DHT22;5104;50.720;7.044;2022-07-05T01:17:36;16.30;99.90
10129;DHT22;5104;50.720;7.044;2022-07-05T01:20:04;16.20;99.90
10129;DHT22;5104;50.720;7.044;2022-07-05T01:22:49;16.20;99.90
10129;DHT22;5104;50.720;7.044;2022-07-05T01:25:18;16.10;99.90
10129;DHT22;5104;50.720;7.044;2022-07-05T01:27:46;16.10;1.00
10129;DHT22;5104;50.720;7.044;2022-07-05T01:30:13;16.10;1.00
10129;DHT22;5104;50.720;7.044;2022-07-05T01:32:40;16.10;1.00
10129;DHT22;5104;50.720;7.044;2022-07-05T01:35:08;16.10;1.00
10129;DHT22;5104;50.720;7.044;2022-07-05T01:37:37;16.00;1.00
10129;DHT22;5104;50.720;7.044;2022-07-05T01:40:04;16.00;1.00
10129;DHT22;5104;50.720;7.044;2022-07-05T01:42:32;15.90;1.00
10129;DHT22;5104;50.720;7.044;2022-07-05T01:44:59;15.90;76.40
10129;DHT22;5104;50.720;7.044;2022-07-05T01:47:26;15.90;99.90
10129;DHT22;5104;50.720;7.044;2022-07-05T01:49:54;15.90;99.90
10129;DHT22;5104;50.720;7.044;2022-07-05T01:52:24;15.80;99.90
10129;DHT22;5104;50.720;7.044;2022-07-05T01:54:54;15.80;99.90
10129;DHT22;5104;50.720;7.044;2022-07-05T01:57:21;15.70;1.00
10129;DHT22;5104;50.720;7.044;2022-07-05T01:59:48;15.70;1.00
10129;DHT22;5104;50.720;7.044;2022-07-05T02:02:15;15.70;1.00
10129;DHT22;5104;50.720;7.044;2022-07-05T02:04:42;15.70;99.90
10129;DHT22;5104;50.720;7.044;2022-07-05T02:07:09;15.60;99.90
10129;DHT22;5104;50.720;7.044;2022-07-05T02:09:37;15.60;99.90
10129;DHT22;5104;50.720;7.044;2022-07-05T02:12:06;15.50;1.00
10129;DHT22;5104;50.720;7.044;2022-07-05T02:14:33;15.50;1.00
10129;DHT22;5104;50.720;7.044;2022-07-05T02:17:00;15.50;1.00
10129;DHT22;5104;50.720;7.044;2022-07-05T02:19:27;15.50;1.00
10129;DHT22;5104;50.720;7.044;2022-07-05T02:21:54;15.50;1.00
10129;DHT22;5104;50.720;7.044;2022-07-05T02:24:21;15.40;90.50
10129;DHT22;5104;50.720;7.044;2022-07-05T02:26:48;15.50;7.70
10129;DHT22;5104;50.720;7.044;2022-07-05T02:29:16;15.50;1.00
10129;DHT22;5104;50.720;7.044;2022-07-05T02:31:43;15.40;1.00
10129;DHT22;5104;50.720;7.044;2022-07-05T02:34:10;15.40;99.90
10129;DHT22;5104;50.720;7.044;2022-07-05T02:36:37;15.40;99.90
10129;DHT22;5104;50.720;7.044;2022-07-05T02:39:04;15.30;99.90
10129;DHT22;5104;50.720;7.044;2022-07-05T02:41:30;15.30;99.90
10129;DHT22;5104;50.720;7.044;2022-07-05T02:43:57;15.30;99.90
10129;DHT22;5104;50.720;7.044;2022-07-05T02:46:25;15.30;1.00
10129;DHT22;5104;50.720;7.044;2022-07-05T02:48:52;15.30;1.00
10129;DHT22;5104;50.720;7.044;2022-07-05T02:51:19;15.20;1.00
10129;DHT22;5104;50.720;7.044;2022-07-05T02:53:46;15.30;1.00
10129;DHT22;5104;50.720;7.044;2022-07-05T02:56:13;15.20;1.00
10129;DHT22;5104;50.720;7.044;2022-07-05T02:58:40;15.20;57.20
10129;DHT22;5104;50.720;7.044;2022-07-05T03:01:06;15.20;1.00
10129;DHT22;5104;50.720;7.044;2022-07-05T03:03:35;15.20;1.00
10129;DHT22;5104;50.720;7.044;2022-07-05T03:06:02;15.10;1.00
10129;DHT22;5104;50.720;7.044;2022-07-05T03:08:29;15.20;1.00
10129;DHT22;5104;50.720;7.044;2022-07-05T03:10:56;15.10;99.90
10129;DHT22;5104;50.720;7.044;2022-07-05T03:13:23;15.10;1.00
10129;DHT22;5104;50.720;7.044;2022-07-05T03:15:50;15.00;1.00
10129;DHT22;5104;50.720;7.044;2022-07-05T03:18:17;15.00;99.90
10129;DHT22;5104;50.720;7.044;2022-07-05T03:20:45;15.00;99.90
10129;DHT22;5104;50.720;7.044;2022-07-05T03:23:12;15.00;1.00
10129;DHT22;5104;50.720;7.044;2022-07-05T03:25:38;15.00;99.90
10129;DHT22;5104;50.720;7.044;2022-07-05T03:28:05;15.10;99.90
10129;DHT22;5104;50.720;7.044;2022-07-05T03:30:32;15.10;49.00
10129;DHT22;5104;50.720;7.044;2022-07-05T03:32:59;15.00;1.00
10129;DHT22;5104;50.720;7.044;2022-07-05T03:35:26;15.00;1.00
10129;DHT22;5104;50.720;7.044;2022-07-05T03:37:55;15.10;99.90
10129;DHT22;5104;50.720;7.044;2022-07-05T03:40:22;15.10;99.90
10129;DHT22;5104;50.720;7.044;2022-07-05T03:42:49;15.10;1.00
10129;DHT22;5104;50.720;7.044;2022-07-05T03:45:15;15.10;1.00
10129;DHT22;5104;50.720;7.044;2022-07-05T03:47:42;15.10;1.00
10129;DHT22;5104;50.720;7.044;2022-07-05T03:50:09;15.10;1.00
10129;DHT22;5104;50.720;7.044;2022-07-05T03:52:36;15.10;1.00
10129;DHT22;5104;50.720;7.044;2022-07-05T03:55:05;15.10;99.90
10129;DHT22;5104;50.720;7.044;2022-07-05T03:57:32;15.20;99.90
10129;DHT22;5104;50.720;7.044;2022-07-05T03:59:59;15.20;99.90
10129;DHT22;5104;50.720;7.044;2022-07-05T04:02:25;15.20;99.90
10129;DHT22;5104;50.720;7.044;2022-07-05T04:04:52;15.20;99.90
10129;DHT22;5104;50.720;7.044;2022-07-05T04:07:19;15.30;1.00
10129;DHT22;5104;50.720;7.044;2022-07-05T04:09:46;15.40;99.90
10129;DHT22;5104;50.720;7.044;2022-07-05T04:12:14;15.40;99.90
10129;DHT22;5104;50.720;7.044;2022-07-05T04:14:41;15.40;99.90
10129;DHT22;5104;50.720;7.044;2022-07-05T04:17:08;15.50;1.00
10129;DHT22;5104;50.720;7.044;2022-07-05T04:19:35;15.50;1.00
10129;DHT22;5104;50.720;7.044;2022-07-05T04:22:02;15.60;1.00
10129;DHT22;5104;50.720;7.044;2022-07-05T04:24:29;15.70;99.90
10129;DHT22;5104;50.720;7.044;2022-07-05T04:26:56;15.90;1.00
10129;DHT22;5104;50.720;7.044;2022-07-05T04:29:24;16.00;1.00
10129;DHT22;5104;50.720;7.044;2022-07-05T04:31:51;16.10;99.90
10129;DHT22;5104;50.720;7.044;2022-07-05T04:34:18;16.10;99.90
10129;DHT22;5104;50.720;7.044;2022-07-05T04:36:44;16.20;99.90
10129;DHT22;5104;50.720;7.044;2022-07-05T04:39:11;16.20;99.90
10129;DHT22;5104;50.720;7.044;2022-07-05T04:41:38;16.30;1.00
10129;DHT22;5104;50.720;7.044;2022-07-05T04:44:05;16.30;48.10
10129;DHT22;5104;50.720;7.044;2022-07-05T04:46:33;16.30;1.00
10129;DHT22;5104;50.720;7.044;2022-07-05T04:49:00;16.30;99.90
10129;DHT22;5104;50.720;7.044;2022-07-05T04:51:27;16.20;99.90
10129;DHT22;5104;50.720;7.044;2022-07-05T04:53:55;16.30;1.00
10129;DHT22;5104;50.720;7.044;2022-07-05T04:56:22;16.30;99.90
10129;DHT22;5104;50.720;7.044;2022-07-05T04:58:49;16.40;99.90
10129;DHT22;5104;50.720;7.044;2022-07-05T05:01:16;16.40;1.00
10129;DHT22;5104;50.720;7.044;2022-07-05T05:03:44;16.50;1.00
10129;DHT22;5104;50.720;7.044;2022-07-05T05:06:11;16.50;85.70
10129;DHT22;5104;50.720;7.044;2022-07-05T05:08:39;16.60;1.00
10129;DHT22;5104;50.720;7.044;2022-07-05T05:11:07;16.70;1.00
10129;DHT22;5104;50.720;7.044;2022-07-05T05:13:33;16.80;1.00
10129;DHT22;5104;50.720;7.044;2022-07-05T05:16:01;16.90;1.00
10129;DHT22;5104;50.720;7.044;2022-07-05T05:18:28;16.90;1.00
10129;DHT22;5104;50.720;7.044;2022-07-05T05:20:56;17.00;99.90
10129;DHT22;5104;50.720;7.044;2022-07-05T05:23:23;17.20;37.40
10129;DHT22;5104;50.720;7.044;2022-07-05T05:25:50;17.30;1.00
10129;DHT22;5104;50.720;7.044;2022-07-05T05:28:17;17.40;1.00
10129;DHT22;5104;50.720;7.044;2022-07-05T05:30:44;17.50;1.00
10129;DHT22;5104;50.720;7.044;2022-07-05T05:33:10;17.60;99.90
10129;DHT22;5104;50.720;7.044;2022-07-05T05:35:37;17.70;99.90
10129;DHT22;5104;50.720;7.044;2022-07-05T05:38:07;17.80;99.90
10129;DHT22;5104;50.720;7.044;2022-07-05T05:40:34;17.80;99.90
10129;DHT22;5104;50.720;7.044;2022-07-05T05:43:03;18.00;52.40
10129;DHT22;5104;50.720;7.044;2022-07-05T05:45:30;18.10;1.00
10129;DHT22;5104;50.720;7.044;2022-07-05T05:47:59;18.20;1.00
10129;DHT22;5104;50.720;7.044;2022-07-05T05:50:27;18.30;1.00
10129;DHT22;5104;50.720;7.044;2022-07-05T05:52:54;18.40;1.00
10129;DHT22;5104;50.720;7.044;2022-07-05T05:55:24;18.40;1.00
10129;DHT22;5104;50.720;7.044;2022-07-05T05:57:51;18.40;1.00
10129;DHT22;5104;50.720;7.044;2022-07-05T06:00:19;18.50;1.00
10129;DHT22;5104;50.720;7.044;2022-07-05T06:02:48;18.50;1.00
10129;DHT22;5104;50.720;7.044;2022-07-05T06:05:16;18.60;1.00
10129;DHT22;5104;50.720;7.044;2022-07-05T06:07:47;18.80;1.00
10129;DHT22;5104;50.720;7.044;2022-07-05T06:10:20;18.80;1.00
10129;DHT22;5104;50.720;7.044;2022-07-05T06:12:49;18.90;1.00
10129;DHT22;5104;50.720;7.044;2022-07-05T06:15:17;19.10;99.90
10129;DHT22;5104;50.720;7.044;2022-07-05T06:17:44;19.00;99.90
10129;DHT22;5104;50.720;7.044;2022-07-05T06:20:12;18.90;99.90
10129;DHT22;5104;50.720;7.044;2022-07-05T06:22:40;18.80;1.00
10129;DHT22;5104;50.720;7.044;2022-07-05T06:25:08;18.90;1.00
10129;DHT22;5104;50.720;7.044;2022-07-05T06:27:38;19.00;99.90
10129;DHT22;5104;50.720;7.044;2022-07-05T06:30:08;18.90;99.90
10129;DHT22;5104;50.720;7.044;2022-07-05T06:32:36;19.10;99.90
10129;DHT22;5104;50.720;7.044;2022-07-05T06:35:03;19.20;99.90
10129;DHT22;5104;50.720;7.044;2022-07-05T06:37:40;19.40;99.90
10129;DHT22;5104;50.720;7.044;2022-07-05T06:40:09;19.50;99.90
10129;DHT22;5104;50.720;7.044;2022-07-05T06:42:36;19.50;99.90
10129;DHT22;5104;50.720;7.044;2022-07-05T06:45:04;19.50;99.90
10129;DHT22;5104;50.720;7.044;2022-07-05T06:47:32;19.50;99.90
10129;DHT22;5104;50.720;7.044;2022-07-05T06:49:59;19.40;99.90
10129;DHT22;5104;50.720;7.044;2022-07-05T06:52:28;19.50;78.90
10129;DHT22;5104;50.720;7.044;2022-07-05T06:54:55;19.60;99.90
10129;DHT22;5104;50.720;7.044;2022-07-05T06:57:22;19.70;42.90
10129;DHT22;5104;50.720;7.044;2022-07-05T06:59:49;19.70;1.00
10129;DHT22;5104;50.720;7.044;2022-07-05T07:02:17;19.70;1.00
10129;DHT22;5104;50.720;7.044;2022-07-05T07:04:46;19.60;1.00
10129;DHT22;5104;50.720;7.044;2022-07-05T07:07:12;19.90;1.00
10129;DHT22;5104;50.720;7.044;2022-07-05T07:09:56;20.00;1.00
10129;DHT22;5104;50.720;7.044;2022-07-05T07:12:23;19.90;1.00
10129;DHT22;5104;50.720;7.044;2022-07-05T07:14:50;20.00;1.00
10129;DHT22;5104;50.720;7.044;2022-07-05T07:17:17;19.90;1.00
10129;DHT22;5104;50.720;7.044;2022-07-05T07:19:45;20.00;1.00
10129;DHT22;5104;50.720;7.044;2022-07-05T07:22:12;20.10;1.00
10129;DHT22;5104;50.720;7.044;2022-07-05T07:24:39;20.30;1.00
10129;DHT22;5104;50.720;7.044;2022-07-05T07:27:06;20.30;1.00
10129;DHT22;5104;50.720;7.044;2022-07-05T07:29:35;20.50;1.00
10129;DHT22;5104;50.720;7.044;2022-07-05T07:32:03;20.50;1.00
10129;DHT22;5104;50.720;7.044;2022-07-05T07:34:30;20.70;1.00
10129;DHT22;5104;50.720;7.044;2022-07-05T07:36:59;20.80;1.00
10129;DHT22;5104;50.720;7.044;2022-07-05T07:39:26;20.90;1.00
10129;DHT22;5104;50.720;7.044;2022-07-05T07:41:53;20.80;1.00
10129;DHT22;5104;50.720;7.044;2022-07-05T07:44:20;21.00;1.00
10129;DHT22;5104;50.720;7.044;2022-07-05T07:46:47;20.80;1.00
10129;DHT22;5104;50.720;7.044;2022-07-05T07:49:14;21.00;1.00
10129;DHT22;5104;50.720;7.044;2022-07-05T07:51:41;21.10;1.00
10129;DHT22;5104;50.720;7.044;2022-07-05T07:54:09;21.30;1.00
10129;DHT22;5104;50.720;7.044;2022-07-05T07:56:36;21.20;1.00
10129;DHT22;5104;50.720;7.044;2022-07-05T07:59:03;21.20;1.00
10129;DHT22;5104;50.720;7.044;2022-07-05T08:01:30;21.40;1.00
10129;DHT22;5104;50.720;7.044;2022-07-05T08:03:58;21.40;1.00
10129;DHT22;5104;50.720;7.044;2022-07-05T08:06:24;21.50;1.00
10129;DHT22;5104;50.720;7.044;2022-07-05T08:08:51;21.50;1.00
10129;DHT22;5104;50.720;7.044;2022-07-05T08:11:19;21.60;1.00
10129;DHT22;5104;50.720;7.044;2022-07-05T08:13:46;21.70;1.00
10129;DHT22;5104;50.720;7.044;2022-07-05T08:16:13;21.80;99.90
10129;DHT22;5104;50.720;7.044;2022-07-05T08:18:40;21.70;99.90
10129;DHT22;5104;50.720;7.044;2022-07-05T08:21:25;21.90;99.90
10129;DHT22;5104;50.720;7.044;2022-07-05T08:23:58;22.00;99.90
10129;DHT22;5104;50.720;7.044;2022-07-05T08:26:26;22.00;99.90
10129;DHT22;5104;50.720;7.044;2022-07-05T08:28:54;21.80;99.90
10129;DHT22;5104;50.720;7.044;2022-07-05T08:31:21;21.70;99.90
10129;DHT22;5104;50.720;7.044;2022-07-05T08:33:47;21.70;99.90
10129;DHT22;5104;50.720;7.044;2022-07-05T08:36:14;21.80;99.90
10129;DHT22;5104;50.720;7.044;2022-07-05T08:38:41;21.90;99.90
10129;DHT22;5104;50.720;7.044;2022-07-05T08:41:10;22.10;99.90
10129;DHT22;5104;50.720;7.044;2022-07-05T08:43:41;22.30;99.90
10129;DHT22;5104;50.720;7.044;2022-07-05T08:46:08;22.50;99.90
10129;DHT22;5104;50.720;7.044;2022-07-05T08:48:37;22.50;99.90
10129;DHT22;5104;50.720;7.044;2022-07-05T08:51:10;22.50;99.90
10129;DHT22;5104;50.720;7.044;2022-07-05T08:53:39;22.60;99.90
10129;DHT22;5104;50.720;7.044;2022-07-05T08:56:08;22.70;99.90
10129;DHT22;5104;50.720;7.044;2022-07-05T08:58:35;22.80;99.90
10129;DHT22;5104;50.720;7.044;2022-07-05T09:01:04;22.80;99.90
10129;DHT22;5104;50.720;7.044;2022-07-05T09:03:34;22.80;99.90
10129;DHT22;5104;50.720;7.044;2022-07-05T09:06:07;22.90;99.90
10129;DHT22;5104;50.720;7.044;2022-07-05T09:08:36;23.00;99.90
10129;DHT22;5104;50.720;7.044;2022-07-05T09:11:07;22.90;81.60
10129;DHT22;5104;50.720;7.044;2022-07-05T09:13:36;23.20;83.10
10129;DHT22;5104;50.720;7.044;2022-07-05T09:16:05;23.50;57.60
10129;DHT22;5104;50.720;7.044;2022-07-05T09:18:42;23.60;54.40
10129;DHT22;5104;50.720;7.044;2022-07-05T09:21:14;23.50;46.00
10129;DHT22;5104;50.720;7.044;2022-07-05T09:23:42;23.70;44.50
10129;DHT22;5104;50.720;7.044;2022-07-05T09:26:09;23.80;38.00
10129;DHT22;5104;50.720;7.044;2022-07-05T09:28:36;24.00;20.10
10129;DHT22;5104;50.720;7.044;2022-07-05T09:31:05;23.70;27.90
10129;DHT22;5104;50.720;7.044;2022-07-05T09:33:31;23.50;31.30
10129;DHT22;5104;50.720;7.044;2022-07-05T09:35:58;23.30;39.10
10129;DHT22;5104;50.720;7.044;2022-07-05T09:38:27;23.40;52.60
10129;DHT22;5104;50.720;7.044;2022-07-05T09:40:55;23.60;45.20
10129;DHT22;5104;50.720;7.044;2022-07-05T09:43:24;23.50;43.90
10129;DHT22;5104;50.720;7.044;2022-07-05T09:45:56;23.60;30.00
10129;DHT22;5104;50.720;7.044;2022-07-05T09:48:26;23.60;20.90
10129;DHT22;5104;50.720;7.044;2022-07-05T09:51:04;23.50;18.50
10129;DHT22;5104;50.720;7.044;2022-07-05T09:53:44;23.60;1.00
10129;DHT22;5104;50.720;7.044;2022-07-05T09:56:12;23.70;1.00
10129;DHT22;5104;50.720;7.044;2022-07-05T09:58:39;23.80;1.00
10129;DHT22;5104;50.720;7.044;2022-07-05T10:01:22;24.20;1.00
10129;DHT22;5104;50.720;7.044;2022-07-05T10:03:55;24.70;1.00
10129;DHT22;5104;50.720;7.044;2022-07-05T10:06:23;24.50;1.00
10129;DHT22;5104;50.720;7.044;2022-07-05T10:08:51;24.30;1.00
10129;DHT22;5104;50.720;7.044;2022-07-05T10:11:19;24.00;1.00
10129;DHT22;5104;50.720;7.044;2022-07-05T10:13:48;24.10;1.00
10129;DHT22;5104;50.720;7.044;2022-07-05T10:16:16;24.10;1.00
10129;DHT22;5104;50.720;7.044;2022-07-05T10:18:43;24.30;1.00
10129;DHT22;5104;50.720;7.044;2022-07-05T10:21:13;24.30;1.00
10129;DHT22;5104;50.720;7.044;2022-07-05T10:23:43;24.10;1.00
10129;DHT22;5104;50.720;7.044;2022-07-05T10:26:11;23.80;1.00
10129;DHT22;5104;50.720;7.044;2022-07-05T10:28:40;23.60;1.00
10129;DHT22;5104;50.720;7.044;2022-07-05T10:31:07;23.20;1.00
10129;DHT22;5104;50.720;7.044;2022-07-05T10:33:35;23.30;1.00
10129;DHT22;5104;50.720;7.044;2022-07-05T10:36:03;23.60;1.00
10129;DHT22;5104;50.720;7.044;2022-07-05T10:38:35;23.90;1.00
10129;DHT22;5104;50.720;7.044;2022-07-05T10:41:04;24.00;1.00
10129;DHT22;5104;50.720;7.044;2022-07-05T10:43:32;24.10;1.00
10129;DHT22;5104;50.720;7.044;2022-07-05T10:45:59;24.20;1.00
10129;DHT22;5104;50.720;7.044;2022-07-05T10:48:28;24.50;1.00
10129;DHT22;5104;50.720;7.044;2022-07-05T10:50:56;24.80;1.00
10129;DHT22;5104;50.720;7.044;2022-07-05T10:53:25;24.80;1.00
10129;DHT22;5104;50.720;7.044;2022-07-05T10:55:57;24.60;1.00
10129;DHT22;5104;50.720;7.044;2022-07-05T10:58:32;24.20;1.00
10129;DHT22;5104;50.720;7.044;2022-07-05T11:01:34;23.90;1.00
10129;DHT22;5104;50.720;7.044;2022-07-05T11:04:24;24.00;1.00
10129;DHT22;5104;50.720;7.044;2022-07-05T11:06:53;23.90;1.00
10129;DHT22;5104;50.720;7.044;2022-07-05T11:09:20;24.20;1.00
10129;DHT22;5104;50.720;7.044;2022-07-05T11:12:08;24.50;1.00
10129;DHT22;5104;50.720;7.044;2022-07-05T11:14:36;25.00;1.00
10129;DHT22;5104;50.720;7.044;2022-07-05T11:17:21;25.30;1.00
10129;DHT22;5104;50.720;7.044;2022-07-05T11:20:14;24.90;1.00
10129;DHT22;5104;50.720;7.044;2022-07-05T11:23:00;24.70;1.00
10129;DHT22;5104;50.720;7.044;2022-07-05T11:25:28;24.30;1.00
10129;DHT22;5104;50.720;7.044;2022-07-05T11:28:11;24.30;1.00
10129;DHT22;5104;50.720;7.044;2022-07-05T11:30:49;24.30;1.00
10129;DHT22;5104;50.720;7.044;2022-07-05T11:33:30;24.40;1.00
10129;DHT22;5104;50.720;7.044;2022-07-05T11:35:58;24.70;1.00
10129;DHT22;5104;50.720;7.044;2022-07-05T11:38:25;24.80;1.00
10129;DHT22;5104;50.720;7.044;2022-07-05T11:40:52;24.80;1.00
10129;DHT22;5104;50.720;7.044;2022-07-05T11:43:28;24.70;1.00
10129;DHT22;5104;50.720;7.044;2022-07-05T11:45:56;24.50;1.00
10129;DHT22;5104;50.720;7.044;2022-07-05T11:48:25;24.60;1.00
10129;DHT22;5104;50.720;7.044;2022-07-05T11:50:52;24.60;1.00
10129;DHT22;5104;50.720;7.044;2022-07-05T11:53:26;24.80;1.00
10129;DHT22;5104;50.720;7.044;2022-07-05T11:55:54;24.50;1.00
10129;DHT22;5104;50.720;7.044;2022-07-05T11:58:22;24.70;1.00
10129;DHT22;5104;50.720;7.044;2022-07-05T12:00:59;24.80;1.00
10129;DHT22;5104;50.720;7.044;2022-07-05T12:03:26;24.90;1.00
10129;DHT22;5104;50.720;7.044;2022-07-05T12:05:53;24.90;1.00
10129;DHT22;5104;50.720;7.044;2022-07-05T12:08:21;25.00;1.00
10129;DHT22;5104;50.720;7.044;2022-07-05T12:10:48;24.90;1.00
10129;DHT22;5104;50.720;7.044;2022-07-05T12:13:43;24.70;1.00
10129;DHT22;5104;50.720;7.044;2022-07-05T12:16:12;24.80;1.00
10129;DHT22;5104;50.720;7.044;2022-07-05T12:18:50;24.90;1.00
10129;DHT22;5104;50.720;7.044;2022-07-05T12:21:17;24.40;1.00
10129;DHT22;5104;50.720;7.044;2022-07-05T12:23:46;24.80;1.00
10129;DHT22;5104;50.720;7.044;2022-07-05T12:26:14;25.00;1.00
10129;DHT22;5104;50.720;7.044;2022-07-05T12:28:42;25.20;1.00
10129;DHT22;5104;50.720;7.044;2022-07-05T12:31:20;25.20;1.00
10129;DHT22;5104;50.720;7.044;2022-07-05T12:33:48;25.20;1.00
10129;DHT22;5104;50.720;7.044;2022-07-05T12:36:16;25.10;1.00
10129;DHT22;5104;50.720;7.044;2022-07-05T12:38:43;24.90;1.00
10129;DHT22;5104;50.720;7.044;2022-07-05T12:41:10;24.70;1.00
10129;DHT22;5104;50.720;7.044;2022-07-05T12:43:52;24.80;1.00
10129;DHT22;5104;50.720;7.044;2022-07-05T12:46:21;25.30;1.00
10129;DHT22;5104;50.720;7.044;2022-07-05T12:49:01;25.40;1.00
10129;DHT22;5104;50.720;7.044;2022-07-05T12:51:32;25.70;1.00
10129;DHT22;5104;50.720;7.044;2022-07-05T12:54:00;25.60;1.00
10129;DHT22;5104;50.720;7.044;2022-07-05T12:56:48;25.10;1.00
10129;DHT22;5104;50.720;7.044;2022-07-05T12:59:32;25.20;1.00
10129;DHT22;5104;50.720;7.044;2022-07-05T13:02:01;25.60;1.00
10129;DHT22;5104;50.720;7.044;2022-07-05T13:04:29;25.80;1.00
10129;DHT22;5104;50.720;7.044;2022-07-05T13:06:57;26.00;1.00
10129;DHT22;5104;50.720;7.044;2022-07-05T13:09:32;26.10;1.00
10129;DHT22;5104;50.720;7.044;2022-07-05T13:12:10;26.10;1.00
10129;DHT22;5104;50.720;7.044;2022-07-05T13:14:39;25.90;1.00
10129;DHT22;5104;50.720;7.044;2022-07-05T13:17:08;26.10;1.00
10129;DHT22;5104;50.720;7.044;2022-07-05T13:19:35;26.20;1.00
10129;DHT22;5104;50.720;7.044;2022-07-05T13:22:03;26.40;1.00
10129;DHT22;5104;50.720;7.044;2022-07-05T13:24:30;26.40;1.00
10129;DHT22;5104;50.720;7.044;2022-07-05T13:26:58;26.10;1.00
10129;DHT22;5104;50.720;7.044;2022-07-05T13:29:25;26.10;1.00
10129;DHT22;5104;50.720;7.044;2022-07-05T13:31:52;26.40;1.00
10129;DHT22;5104;50.720;7.044;2022-07-05T13:34:21;26.30;1.00
10129;DHT22;5104;50.720;7.044;2022-07-05T13:36:49;26.20;1.00
10129;DHT22;5104;50.720;7.044;2022-07-05T13:39:16;25.80;1.00
10129;DHT22;5104;50.720;7.044;2022-07-05T13:41:43;25.90;1.00
10129;DHT22;5104;50.720;7.044;2022-07-05T13:44:11;25.50;1.00
10129;DHT22;5104;50.720;7.044;2022-07-05T13:46:37;25.50;1.00
10129;DHT22;5104;50.720;7.044;2022-07-05T13:49:04;25.50;1.00
10129;DHT22;5104;50.720;7.044;2022-07-05T13:51:32;25.60;1.00
10129;DHT22;5104;50.720;7.044;2022-07-05T13:54:00;25.50;1.00
10129;DHT22;5104;50.720;7.044;2022-07-05T13:56:26;25.80;1.00
10129;DHT22;5104;50.720;7.044;2022-07-05T13:58:53;25.90;1.00
10129;DHT22;5104;50.720;7.044;2022-07-05T14:01:21;25.70;1.00
10129;DHT22;5104;50.720;7.044;2022-07-05T14:03:52;25.60;1.00
10129;DHT22;5104;50.720;7.044;2022-07-05T14:06:18;25.90;1.00
10129;DHT22;5104;50.720;7.044;2022-07-05T14:08:47;26.10;1.00
10129;DHT22;5104;50.720;7.044;2022-07-05T14:11:14;26.40;1.00
10129;DHT22;5104;50.720;7.044;2022-07-05T14:13:40;26.50;1.00
10129;DHT22;5104;50.720;7.044;2022-07-05T14:16:08;26.60;1.00
10129;DHT22;5104;50.720;7.044;2022-07-05T14:18:35;26.70;1.00
10129;DHT22;5104;50.720;7.044;2022-07-05T14:21:02;26.60;1.00
10129;DHT22;5104;50.720;7.044;2022-07-05T14:23:29;27.00;1.00
10129;DHT22;5104;50.720;7.044;2022-07-05T14:25:59;27.10;1.00
10129;DHT22;5104;50.720;7.044;2022-07-05T14:28:26;27.30;1.00
10129;DHT22;5104;50.720;7.044;2022-07-05T14:30:53;27.10;1.00
10129;DHT22;5104;50.720;7.044;2022-07-05T14:33:19;27.40;1.00
10129;DHT22;5104;50.720;7.044;2022-07-05T14:35:47;27.60;1.00
10129;DHT22;5104;50.720;7.044;2022-07-05T14:38:14;27.60;1.00
10129;DHT22;5104;50.720;7.044;2022-07-05T14:40:40;27.60;1.00
10129;DHT22;5104;50.720;7.044;2022-07-05T14:43:09;27.60;1.00
10129;DHT22;5104;50.720;7.044;2022-07-05T14:45:36;27.40;1.00
10129;DHT22;5104;50.720;7.044;2022-07-05T14:48:03;26.70;1.00
10129;DHT22;5104;50.720;7.044;2022-07-05T14:50:30;26.40;1.00
10129;DHT22;5104;50.720;7.044;2022-07-05T14:52:57;26.80;1.00
10129;DHT22;5104;50.720;7.044;2022-07-05T14:55:24;27.50;1.00
10129;DHT22;5104;50.720;7.044;2022-07-05T14:57:50;27.70;1.00
10129;DHT22;5104;50.720;7.044;2022-07-05T15:00:19;27.70;1.00
10129;DHT22;5104;50.720;7.044;2022-07-05T15:02:46;27.70;1.00
10129;DHT22;5104;50.720;7.044;2022-07-05T15:05:13;28.40;1.00
10129;DHT22;5104;50.720;7.044;2022-07-05T15:07:40;28.80;1.00
10129;DHT22;5104;50.720;7.044;2022-07-05T15:10:08;28.50;1.00
10129;DHT22;5104;50.720;7.044;2022-07-05T15:12:35;28.30;1.00
10129;DHT22;5104;50.720;7.044;2022-07-05T15:15:02;27.60;1.00
10129;DHT22;5104;50.720;7.044;2022-07-05T15:17:31;27.70;1.00
10129;DHT22;5104;50.720;7.044;2022-07-05T15:19:59;28.20;1.00
10129;DHT22;5104;50.720;7.044;2022-07-05T15:22:26;28.20;1.00
10129;DHT22;5104;50.720;7.044;2022-07-05T15:24:53;28.70;1.00
10129;DHT22;5104;50.720;7.044;2022-07-05T15:27:20;29.40;1.00
10129;DHT22;5104;50.720;7.044;2022-07-05T15:29:47;29.60;1.00
10129;DHT22;5104;50.720;7.044;2022-07-05T15:32:14;29.80;1.00
10129;DHT22;5104;50.720;7.044;2022-07-05T15:34:43;29.60;1.00
10129;DHT22;5104;50.720;7.044;2022-07-05T15:37:10;29.00;1.00
10129;DHT22;5104;50.720;7.044;2022-07-05T15:39:41;28.80;1.00
10129;DHT22;5104;50.720;7.044;2022-07-05T15:42:08;29.00;1.00
10129;DHT22;5104;50.720;7.044;2022-07-05T15:44:35;28.30;1.00
10129;DHT22;5104;50.720;7.044;2022-07-05T15:47:02;29.00;1.00
10129;DHT22;5104;50.720;7.044;2022-07-05T15:49:32;29.70;1.00
10129;DHT22;5104;50.720;7.044;2022-07-05T15:52:00;30.50;1.00
10129;DHT22;5104;50.720;7.044;2022-07-05T15:54:28;31.10;1.00
10129;DHT22;5104;50.720;7.044;2022-07-05T15:56:55;31.60;1.00
10129;DHT22;5104;50.720;7.044;2022-07-05T15:59:22;31.20;1.00
10129;DHT22;5104;50.720;7.044;2022-07-05T16:01:49;30.60;1.00
10129;DHT22;5104;50.720;7.044;2022-07-05T16:04:16;31.10;1.00
10129;DHT22;5104;50.720;7.044;2022-07-05T16:06:43;30.90;1.00